sensor_id;sensor_type;location;lat;lon;timestamp;temperature;humidity
52125;DHT22;38119;52.710;6.398;2023-07-29T00:02:06;18.50;99.90
52125;DHT22;38119;52.710;6.398;2023-07-29T00:04:31;18.50;99.90
52125;DHT22;38119;52.710;6.398;2023-07-29T00:06:57;18.50;99.90
52125;DHT22;38119;52.710;6.398;2023-07-29T00:09:23;18.50;99.90
52125;DHT22;38119;52.710;6.398;2023-07-29T00:11:48;18.50;99.90
52125;DHT22;38119;52.710;6.398;2023-07-29T00:14:14;18.40;99.90
52125;DHT22;38119;52.710;6.398;2023-07-29T00:16:40;18.40;99.90
52125;DHT22;38119;52.710;6.398;2023-07-29T00:19:06;18.40;99.90
52125;DHT22;38119;52.710;6.398;2023-07-29T00:21:31;18.40;99.90
52125;DHT22;38119;52.710;6.398;2023-07-29T00:23:57;18.40;99.90
52125;DHT22;38119;52.710;6.398;2023-07-29T00:26:23;18.40;99.90
52125;DHT22;38119;52.710;6.398;2023-07-29T00:28:51;18.40;99.90
52125;DHT22;38119;52.710;6.398;2023-07-29T00:31:17;18.40;99.90
52125;DHT22;38119;52.710;6.398;2023-07-29T00:33:43;18.30;99.90
52125;DHT22;38119;52.710;6.398;2023-07-29T00:36:08;18.30;99.90
52125;DHT22;38119;52.710;6.398;2023-07-29T00:38:34;18.30;99.90
52125;DHT22;38119;52.710;6.398;2023-07-29T00:41:02;18.30;99.90
52125;DHT22;38119;52.710;6.398;2023-07-29T00:43:29;18.20;99.90
52125;DHT22;38119;52.710;6.398;2023-07-29T00:45:55;18.20;99.90
52125;DHT22;38119;52.710;6.398;2023-07-29T00:48:23;18.20;99.90
52125;DHT22;38119;52.710;6.398;2023-07-29T00:50:49;18.10;99.90
52125;DHT22;38119;52.710;6.398;2023-07-29T00:53:15;18.10;99.90
52125;DHT22;38119;52.710;6.398;2023-07-29T00:55:41;18.10;99.90
52125;DHT22;38119;52.710;6.398;2023-07-29T00:58:07;18.10;99.90
52125;DHT22;38119;52.710;6.398;2023-07-29T01:00:33;18.00;99.90
52125;DHT22;38119;52.710;6.398;2023-07-29T01:02:59;18.00;99.90
52125;DHT22;38119;52.710;6.398;2023-07-29T01:05:27;18.00;99.90
52125;DHT22;38119;52.710;6.398;2023-07-29T01:10:54;18.00;99.90
52125;DHT22;38119;52.710;6.398;2023-07-29T01:13:34;17.90;99.90
52125;DHT22;38119;52.710;6.398;2023-07-29T01:16:10;17.90;99.90
52125;DHT22;38119;52.710;6.398;2023-07-29T01:18:38;17.90;99.90
52125;DHT22;38119;52.710;6.398;2023-07-29T01:21:07;17.90;99.90
52125;DHT22;38119;52.710;6.398;2023-07-29T01:23:34;17.80;99.90
52125;DHT22;38119;52.710;6.398;2023-07-29T01:26:00;17.80;99.90
52125;DHT22;38119;52.710;6.398;2023-07-29T01:28:27;17.70;99.90
52125;DHT22;38119;52.710;6.398;2023-07-29T01:33:39;17.70;99.90
52125;DHT22;38119;52.710;6.398;2023-07-29T01:36:15;17.70;99.90
52125;DHT22;38119;52.710;6.398;2023-07-29T01:38:44;17.70;99.90
52125;DHT22;38119;52.710;6.398;2023-07-29T01:41:10;17.70;99.90
52125;DHT22;38119;52.710;6.398;2023-07-29T01:43:37;17.60;99.90
52125;DHT22;38119;52.710;6.398;2023-07-29T01:46:12;17.70;99.90
52125;DHT22;38119;52.710;6.398;2023-07-29T01:48:38;17.70;99.90
52125;DHT22;38119;52.710;6.398;2023-07-29T01:51:05;17.60;99.90
52125;DHT22;38119;52.710;6.398;2023-07-29T01:53:30;17.60;99.90
52125;DHT22;38119;52.710;6.398;2023-07-29T01:55:56;17.60;99.90
52125;DHT22;38119;52.710;6.398;2023-07-29T01:58:23;17.60;99.90
52125;DHT22;38119;52.710;6.398;2023-07-29T02:00:48;17.60;99.90
52125;DHT22;38119;52.710;6.398;2023-07-29T02:03:14;17.60;99.90
52125;DHT22;38119;52.710;6.398;2023-07-29T02:05:40;17.60;99.90
52125;DHT22;38119;52.710;6.398;2023-07-29T02:08:05;17.60;99.90
52125;DHT22;38119;52.710;6.398;2023-07-29T02:10:31;17.60;99.90
52125;DHT22;38119;52.710;6.398;2023-07-29T02:12:57;17.60;99.90
52125;DHT22;38119;52.710;6.398;2023-07-29T02:15:23;17.60;99.90
52125;DHT22;38119;52.710;6.398;2023-07-29T02:17:50;17.60;99.90
52125;DHT22;38119;52.710;6.398;2023-07-29T02:20:16;17.60;99.90
52125;DHT22;38119;52.710;6.398;2023-07-29T02:22:41;17.60;99.90
52125;DHT22;38119;52.710;6.398;2023-07-29T02:25:07;17.60;99.90
52125;DHT22;38119;52.710;6.398;2023-07-29T02:27:33;17.70;99.90
52125;DHT22;38119;52.710;6.398;2023-07-29T02:29:59;17.70;99.90
52125;DHT22;38119;52.710;6.398;2023-07-29T02:32:24;17.70;99.90
52125;DHT22;38119;52.710;6.398;2023-07-29T02:34:50;17.70;99.90
52125;DHT22;38119;52.710;6.398;2023-07-29T02:37:16;17.70;99.90
52125;DHT22;38119;52.710;6.398;2023-07-29T02:39:42;17.70;99.90
52125;DHT22;38119;52.710;6.398;2023-07-29T02:42:07;17.70;99.90
52125;DHT22;38119;52.710;6.398;2023-07-29T02:44:33;17.70;99.90
52125;DHT22;38119;52.710;6.398;2023-07-29T02:46:59;17.70;99.90
52125;DHT22;38119;52.710;6.398;2023-07-29T02:49:24;17.60;99.90
52125;DHT22;38119;52.710;6.398;2023-07-29T02:51:50;17.60;99.90
52125;DHT22;38119;52.710;6.398;2023-07-29T02:54:16;17.60;99.90
52125;DHT22;38119;52.710;6.398;2023-07-29T02:56:41;17.60;99.90
52125;DHT22;38119;52.710;6.398;2023-07-29T02:59:07;17.50;99.90
52125;DHT22;38119;52.710;6.398;2023-07-29T03:01:33;17.50;99.90
52125;DHT22;38119;52.710;6.398;2023-07-29T03:03:58;17.50;99.90
52125;DHT22;38119;52.710;6.398;2023-07-29T03:06:24;17.50;99.90
52125;DHT22;38119;52.710;6.398;2023-07-29T03:08:50;17.50;99.90
52125;DHT22;38119;52.710;6.398;2023-07-29T03:11:16;17.50;99.90
52125;DHT22;38119;52.710;6.398;2023-07-29T03:13:42;17.50;99.90
52125;DHT22;38119;52.710;6.398;2023-07-29T03:16:13;17.50;99.90
52125;DHT22;38119;52.710;6.398;2023-07-29T03:18:40;17.40;99.90
52125;DHT22;38119;52.710;6.398;2023-07-29T03:21:09;17.40;99.90
52125;DHT22;38119;52.710;6.398;2023-07-29T03:23:36;17.40;99.90
52125;DHT22;38119;52.710;6.398;2023-07-29T03:26:03;17.40;99.90
52125;DHT22;38119;52.710;6.398;2023-07-29T03:28:36;17.30;99.90
52125;DHT22;38119;52.710;6.398;2023-07-29T03:31:02;17.30;99.90
52125;DHT22;38119;52.710;6.398;2023-07-29T03:33:28;17.30;99.90
52125;DHT22;38119;52.710;6.398;2023-07-29T03:35:54;17.20;99.90
52125;DHT22;38119;52.710;6.398;2023-07-29T03:38:20;17.30;99.90
52125;DHT22;38119;52.710;6.398;2023-07-29T03:40:46;17.20;99.90
52125;DHT22;38119;52.710;6.398;2023-07-29T03:43:12;17.30;99.90
52125;DHT22;38119;52.710;6.398;2023-07-29T03:45:38;17.20;99.90
52125;DHT22;38119;52.710;6.398;2023-07-29T03:48:04;17.20;99.90
52125;DHT22;38119;52.710;6.398;2023-07-29T03:50:30;17.20;99.90
52125;DHT22;38119;52.710;6.398;2023-07-29T03:52:56;17.20;99.90
52125;DHT22;38119;52.710;6.398;2023-07-29T03:55:22;17.20;99.90
52125;DHT22;38119;52.710;6.398;2023-07-29T03:57:48;17.20;99.90
52125;DHT22;38119;52.710;6.398;2023-07-29T04:00:14;17.20;99.90
52125;DHT22;38119;52.710;6.398;2023-07-29T04:02:40;17.20;99.90
52125;DHT22;38119;52.710;6.398;2023-07-29T04:05:06;17.20;99.90
52125;DHT22;38119;52.710;6.398;2023-07-29T04:07:37;17.20;99.90
52125;DHT22;38119;52.710;6.398;2023-07-29T04:10:03;17.20;99.90
52125;DHT22;38119;52.710;6.398;2023-07-29T04:12:30;17.20;99.90
52125;DHT22;38119;52.710;6.398;2023-07-29T04:14:55;17.20;99.90
52125;DHT22;38119;52.710;6.398;2023-07-29T04:17:21;17.20;99.90
52125;DHT22;38119;52.710;6.398;2023-07-29T04:19:47;17.20;99.90
52125;DHT22;38119;52.710;6.398;2023-07-29T04:22:12;17.20;99.90
52125;DHT22;38119;52.710;6.398;2023-07-29T04:24:38;17.20;99.90
52125;DHT22;38119;52.710;6.398;2023-07-29T04:27:04;17.20;99.90
52125;DHT22;38119;52.710;6.398;2023-07-29T04:29:29;17.30;99.90
52125;DHT22;38119;52.710;6.398;2023-07-29T04:31:55;17.20;99.90
52125;DHT22;38119;52.710;6.398;2023-07-29T04:34:21;17.20;99.90
52125;DHT22;38119;52.710;6.398;2023-07-29T04:36:47;17.20;99.90
52125;DHT22;38119;52.710;6.398;2023-07-29T04:39:13;17.10;99.90
52125;DHT22;38119;52.710;6.398;2023-07-29T04:41:39;17.10;99.90
52125;DHT22;38119;52.710;6.398;2023-07-29T04:44:05;17.10;99.90
52125;DHT22;38119;52.710;6.398;2023-07-29T04:46:30;17.10;99.90
52125;DHT22;38119;52.710;6.398;2023-07-29T04:48:56;17.10;99.90
52125;DHT22;38119;52.710;6.398;2023-07-29T04:51:22;17.10;99.90
52125;DHT22;38119;52.710;6.398;2023-07-29T04:53:48;17.10;99.90
52125;DHT22;38119;52.710;6.398;2023-07-29T04:56:14;17.00;99.90
52125;DHT22;38119;52.710;6.398;2023-07-29T04:58:39;17.10;99.90
52125;DHT22;38119;52.710;6.398;2023-07-29T05:01:06;17.10;99.90
52125;DHT22;38119;52.710;6.398;2023-07-29T05:03:31;17.10;99.90
52125;DHT22;38119;52.710;6.398;2023-07-29T05:05:58;17.10;99.90
52125;DHT22;38119;52.710;6.398;2023-07-29T05:08:28;17.10;99.90
52125;DHT22;38119;52.710;6.398;2023-07-29T05:10:54;17.10;99.90
52125;DHT22;38119;52.710;6.398;2023-07-29T05:13:20;17.10;99.90
52125;DHT22;38119;52.710;6.398;2023-07-29T05:15:47;17.10;99.90
52125;DHT22;38119;52.710;6.398;2023-07-29T05:18:13;17.10;99.90
52125;DHT22;38119;52.710;6.398;2023-07-29T05:20:39;17.20;99.90
52125;DHT22;38119;52.710;6.398;2023-07-29T05:23:04;17.20;99.90
52125;DHT22;38119;52.710;6.398;2023-07-29T05:25:30;17.20;99.90
52125;DHT22;38119;52.710;6.398;2023-07-29T05:27:56;17.20;99.90
52125;DHT22;38119;52.710;6.398;2023-07-29T05:30:22;17.20;99.90
52125;DHT22;38119;52.710;6.398;2023-07-29T05:32:48;17.20;99.90
52125;DHT22;38119;52.710;6.398;2023-07-29T05:35:14;17.20;99.90
52125;DHT22;38119;52.710;6.398;2023-07-29T05:37:40;17.20;99.90
52125;DHT22;38119;52.710;6.398;2023-07-29T05:40:07;17.20;99.90
52125;DHT22;38119;52.710;6.398;2023-07-29T05:42:34;17.30;99.90
52125;DHT22;38119;52.710;6.398;2023-07-29T05:45:00;17.30;99.90
52125;DHT22;38119;52.710;6.398;2023-07-29T05:47:25;17.30;99.90
52125;DHT22;38119;52.710;6.398;2023-07-29T05:49:51;17.30;99.90
52125;DHT22;38119;52.710;6.398;2023-07-29T05:52:17;17.40;99.90
52125;DHT22;38119;52.710;6.398;2023-07-29T05:54:43;17.40;99.90
52125;DHT22;38119;52.710;6.398;2023-07-29T05:57:12;17.40;99.90
52125;DHT22;38119;52.710;6.398;2023-07-29T05:59:38;17.40;99.90
52125;DHT22;38119;52.710;6.398;2023-07-29T06:02:04;17.40;99.90
52125;DHT22;38119;52.710;6.398;2023-07-29T06:04:30;17.40;99.90
52125;DHT22;38119;52.710;6.398;2023-07-29T06:06:56;17.40;99.90
52125;DHT22;38119;52.710;6.398;2023-07-29T06:09:24;17.40;99.90
52125;DHT22;38119;52.710;6.398;2023-07-29T06:11:51;17.50;99.90
52125;DHT22;38119;52.710;6.398;2023-07-29T06:14:16;17.50;99.90
52125;DHT22;38119;52.710;6.398;2023-07-29T06:16:42;17.60;99.90
52125;DHT22;38119;52.710;6.398;2023-07-29T06:19:08;17.70;99.90
52125;DHT22;38119;52.710;6.398;2023-07-29T06:21:34;17.70;99.90
52125;DHT22;38119;52.710;6.398;2023-07-29T06:24:01;17.70;99.90
52125;DHT22;38119;52.710;6.398;2023-07-29T06:26:26;17.80;99.90
52125;DHT22;38119;52.710;6.398;2023-07-29T06:28:53;17.80;99.90
52125;DHT22;38119;52.710;6.398;2023-07-29T06:31:19;17.90;99.90
52125;DHT22;38119;52.710;6.398;2023-07-29T06:33:45;17.90;99.90
52125;DHT22;38119;52.710;6.398;2023-07-29T06:36:11;18.00;99.90
52125;DHT22;38119;52.710;6.398;2023-07-29T06:38:37;18.00;99.90
52125;DHT22;38119;52.710;6.398;2023-07-29T06:41:04;18.00;99.90
52125;DHT22;38119;52.710;6.398;2023-07-29T06:43:30;18.00;99.90
52125;DHT22;38119;52.710;6.398;2023-07-29T06:45:55;18.10;99.90
52125;DHT22;38119;52.710;6.398;2023-07-29T06:48:21;18.10;99.90
52125;DHT22;38119;52.710;6.398;2023-07-29T06:50:47;18.10;99.90
52125;DHT22;38119;52.710;6.398;2023-07-29T06:53:13;18.10;99.90
52125;DHT22;38119;52.710;6.398;2023-07-29T06:55:38;18.10;99.90
52125;DHT22;38119;52.710;6.398;2023-07-29T06:58:04;18.20;99.90
52125;DHT22;38119;52.710;6.398;2023-07-29T07:00:30;18.20;99.90
52125;DHT22;38119;52.710;6.398;2023-07-29T07:02:56;18.20;99.90
52125;DHT22;38119;52.710;6.398;2023-07-29T07:05:21;18.30;99.90
52125;DHT22;38119;52.710;6.398;2023-07-29T07:07:47;18.30;99.90
52125;DHT22;38119;52.710;6.398;2023-07-29T07:10:13;18.30;99.90
52125;DHT22;38119;52.710;6.398;2023-07-29T07:12:39;18.40;99.90
52125;DHT22;38119;52.710;6.398;2023-07-29T07:15:05;18.40;99.90
52125;DHT22;38119;52.710;6.398;2023-07-29T07:17:31;18.50;99.90
52125;DHT22;38119;52.710;6.398;2023-07-29T07:19:56;18.60;99.90
52125;DHT22;38119;52.710;6.398;2023-07-29T07:22:22;18.70;99.90
52125;DHT22;38119;52.710;6.398;2023-07-29T07:24:49;18.80;99.90
52125;DHT22;38119;52.710;6.398;2023-07-29T07:27:14;18.90;99.90
52125;DHT22;38119;52.710;6.398;2023-07-29T07:29:40;19.00;99.90
52125;DHT22;38119;52.710;6.398;2023-07-29T07:32:06;19.00;99.90
52125;DHT22;38119;52.710;6.398;2023-07-29T07:34:31;19.00;99.90
52125;DHT22;38119;52.710;6.398;2023-07-29T07:36:58;19.00;99.90
52125;DHT22;38119;52.710;6.398;2023-07-29T07:39:24;19.10;99.90
52125;DHT22;38119;52.710;6.398;2023-07-29T07:41:50;19.10;99.90
52125;DHT22;38119;52.710;6.398;2023-07-29T07:44:15;19.00;99.90
52125;DHT22;38119;52.710;6.398;2023-07-29T07:46:43;19.00;99.90
52125;DHT22;38119;52.710;6.398;2023-07-29T07:49:09;19.00;99.90
52125;DHT22;38119;52.710;6.398;2023-07-29T07:51:34;19.10;99.90
52125;DHT22;38119;52.710;6.398;2023-07-29T07:54:00;19.10;99.90
52125;DHT22;38119;52.710;6.398;2023-07-29T07:56:26;19.10;99.90
52125;DHT22;38119;52.710;6.398;2023-07-29T07:58:51;19.20;99.90
52125;DHT22;38119;52.710;6.398;2023-07-29T08:01:17;19.30;99.90
52125;DHT22;38119;52.710;6.398;2023-07-29T08:03:43;19.30;99.90
52125;DHT22;38119;52.710;6.398;2023-07-29T08:06:08;19.30;99.90
52125;DHT22;38119;52.710;6.398;2023-07-29T08:08:34;19.40;99.90
52125;DHT22;38119;52.710;6.398;2023-07-29T08:11:00;19.50;99.90
52125;DHT22;38119;52.710;6.398;2023-07-29T08:13:26;19.70;99.90
52125;DHT22;38119;52.710;6.398;2023-07-29T08:15:52;19.80;99.90
52125;DHT22;38119;52.710;6.398;2023-07-29T08:18:18;19.80;99.90
52125;DHT22;38119;52.710;6.398;2023-07-29T08:20:54;19.80;99.90
52125;DHT22;38119;52.710;6.398;2023-07-29T08:23:37;19.80;99.90
52125;DHT22;38119;52.710;6.398;2023-07-29T08:26:05;19.90;99.90
52125;DHT22;38119;52.710;6.398;2023-07-29T08:28:38;20.10;99.90
52125;DHT22;38119;52.710;6.398;2023-07-29T08:31:04;20.20;99.90
52125;DHT22;38119;52.710;6.398;2023-07-29T08:33:31;20.30;99.90
52125;DHT22;38119;52.710;6.398;2023-07-29T08:35:59;20.40;99.90
52125;DHT22;38119;52.710;6.398;2023-07-29T08:38:25;20.40;99.90
52125;DHT22;38119;52.710;6.398;2023-07-29T08:43:50;20.60;99.90
52125;DHT22;38119;52.710;6.398;2023-07-29T08:46:16;20.60;99.90
52125;DHT22;38119;52.710;6.398;2023-07-29T08:48:43;20.60;99.90
52125;DHT22;38119;52.710;6.398;2023-07-29T08:51:10;20.60;99.90
52125;DHT22;38119;52.710;6.398;2023-07-29T08:53:37;20.70;99.90
52125;DHT22;38119;52.710;6.398;2023-07-29T08:56:02;20.80;99.90
52125;DHT22;38119;52.710;6.398;2023-07-29T08:58:28;20.90;99.90
52125;DHT22;38119;52.710;6.398;2023-07-29T09:00:54;21.10;99.90
52125;DHT22;38119;52.710;6.398;2023-07-29T09:03:21;21.40;99.90
52125;DHT22;38119;52.710;6.398;2023-07-29T09:05:47;21.70;99.90
52125;DHT22;38119;52.710;6.398;2023-07-29T09:08:14;21.90;99.90
52125;DHT22;38119;52.710;6.398;2023-07-29T09:10:40;21.90;99.90
52125;DHT22;38119;52.710;6.398;2023-07-29T09:13:07;21.80;99.90
52125;DHT22;38119;52.710;6.398;2023-07-29T09:15:34;21.70;99.90
52125;DHT22;38119;52.710;6.398;2023-07-29T09:18:10;21.60;99.90
52125;DHT22;38119;52.710;6.398;2023-07-29T09:20:36;21.60;99.90
52125;DHT22;38119;52.710;6.398;2023-07-29T09:23:01;21.60;99.90
52125;DHT22;38119;52.710;6.398;2023-07-29T09:25:28;21.60;99.90
52125;DHT22;38119;52.710;6.398;2023-07-29T09:28:01;21.60;99.90
52125;DHT22;38119;52.710;6.398;2023-07-29T09:30:32;21.70;99.90
52125;DHT22;38119;52.710;6.398;2023-07-29T09:32:58;21.70;99.90
52125;DHT22;38119;52.710;6.398;2023-07-29T09:35:26;21.70;99.90
52125;DHT22;38119;52.710;6.398;2023-07-29T09:37:53;21.60;99.90
52125;DHT22;38119;52.710;6.398;2023-07-29T09:40:19;21.50;99.90
52125;DHT22;38119;52.710;6.398;2023-07-29T09:42:52;21.40;99.90
52125;DHT22;38119;52.710;6.398;2023-07-29T09:45:25;21.30;99.90
52125;DHT22;38119;52.710;6.398;2023-07-29T09:47:54;21.30;99.90
52125;DHT22;38119;52.710;6.398;2023-07-29T09:50:25;21.20;99.90
52125;DHT22;38119;52.710;6.398;2023-07-29T09:52:53;21.30;99.90
52125;DHT22;38119;52.710;6.398;2023-07-29T09:55:21;21.30;99.90
52125;DHT22;38119;52.710;6.398;2023-07-29T09:57:47;21.30;99.90
52125;DHT22;38119;52.710;6.398;2023-07-29T10:00:13;21.30;99.90
52125;DHT22;38119;52.710;6.398;2023-07-29T10:02:40;21.30;99.90
52125;DHT22;38119;52.710;6.398;2023-07-29T10:05:08;21.40;99.90
52125;DHT22;38119;52.710;6.398;2023-07-29T10:07:37;21.50;99.90
52125;DHT22;38119;52.710;6.398;2023-07-29T10:10:07;21.60;99.90
52125;DHT22;38119;52.710;6.398;2023-07-29T10:12:34;21.70;99.90
52125;DHT22;38119;52.710;6.398;2023-07-29T10:15:04;21.80;99.90
52125;DHT22;38119;52.710;6.398;2023-07-29T10:17:33;21.90;99.90
52125;DHT22;38119;52.710;6.398;2023-07-29T10:20:00;21.90;99.90
52125;DHT22;38119;52.710;6.398;2023-07-29T10:22:28;22.00;99.90
52125;DHT22;38119;52.710;6.398;2023-07-29T10:24:59;22.20;99.90
52125;DHT22;38119;52.710;6.398;2023-07-29T10:27:28;22.20;99.90
52125;DHT22;38119;52.710;6.398;2023-07-29T10:29:55;22.10;99.90
52125;DHT22;38119;52.710;6.398;2023-07-29T10:32:25;22.30;99.90
52125;DHT22;38119;52.710;6.398;2023-07-29T10:34:52;22.50;99.90
52125;DHT22;38119;52.710;6.398;2023-07-29T10:37:18;22.60;99.90
52125;DHT22;38119;52.710;6.398;2023-07-29T10:39:53;22.80;99.90
52125;DHT22;38119;52.710;6.398;2023-07-29T10:42:19;22.90;99.90
52125;DHT22;38119;52.710;6.398;2023-07-29T10:44:50;22.80;99.90
52125;DHT22;38119;52.710;6.398;2023-07-29T10:47:24;22.60;99.90
52125;DHT22;38119;52.710;6.398;2023-07-29T10:49:53;22.40;99.90
52125;DHT22;38119;52.710;6.398;2023-07-29T10:55:01;22.10;99.90
52125;DHT22;38119;52.710;6.398;2023-07-29T10:59:57;22.30;99.90
52125;DHT22;38119;52.710;6.398;2023-07-29T11:02:29;22.40;99.90
52125;DHT22;38119;52.710;6.398;2023-07-29T11:04:56;22.60;99.90
52125;DHT22;38119;52.710;6.398;2023-07-29T11:07:22;22.80;99.90
52125;DHT22;38119;52.710;6.398;2023-07-29T11:10:02;23.00;99.90
52125;DHT22;38119;52.710;6.398;2023-07-29T11:17:34;23.30;99.90
52125;DHT22;38119;52.710;6.398;2023-07-29T11:20:01;23.10;99.90
52125;DHT22;38119;52.710;6.398;2023-07-29T11:22:28;23.00;99.90
52125;DHT22;38119;52.710;6.398;2023-07-29T11:24:54;22.80;99.90
52125;DHT22;38119;52.710;6.398;2023-07-29T11:27:20;22.60;99.90
52125;DHT22;38119;52.710;6.398;2023-07-29T11:29:46;22.70;99.90
52125;DHT22;38119;52.710;6.398;2023-07-29T11:32:12;22.60;99.90
52125;DHT22;38119;52.710;6.398;2023-07-29T11:34:38;22.50;99.90
52125;DHT22;38119;52.710;6.398;2023-07-29T11:37:05;22.30;99.90
52125;DHT22;38119;52.710;6.398;2023-07-29T11:39:32;22.40;99.90
52125;DHT22;38119;52.710;6.398;2023-07-29T11:41:58;22.50;99.90
52125;DHT22;38119;52.710;6.398;2023-07-29T11:44:25;22.80;99.90
52125;DHT22;38119;52.710;6.398;2023-07-29T11:46:50;23.20;99.90
52125;DHT22;38119;52.710;6.398;2023-07-29T11:49:16;23.30;99.90
52125;DHT22;38119;52.710;6.398;2023-07-29T11:51:42;23.40;99.90
52125;DHT22;38119;52.710;6.398;2023-07-29T11:54:08;23.30;99.90
52125;DHT22;38119;52.710;6.398;2023-07-29T11:56:35;23.20;99.90
52125;DHT22;38119;52.710;6.398;2023-07-29T11:59:01;23.10;99.90
52125;DHT22;38119;52.710;6.398;2023-07-29T12:01:28;23.10;99.90
52125;DHT22;38119;52.710;6.398;2023-07-29T12:03:55;23.10;99.90
52125;DHT22;38119;52.710;6.398;2023-07-29T12:06:23;23.10;99.90
52125;DHT22;38119;52.710;6.398;2023-07-29T12:08:50;23.00;99.90
52125;DHT22;38119;52.710;6.398;2023-07-29T12:11:16;23.10;99.90
52125;DHT22;38119;52.710;6.398;2023-07-29T12:13:42;23.10;99.90
52125;DHT22;38119;52.710;6.398;2023-07-29T12:16:08;23.10;99.90
52125;DHT22;38119;52.710;6.398;2023-07-29T12:18:33;23.10;99.90
52125;DHT22;38119;52.710;6.398;2023-07-29T12:20:59;23.10;99.90
52125;DHT22;38119;52.710;6.398;2023-07-29T12:23:26;23.10;99.90
52125;DHT22;38119;52.710;6.398;2023-07-29T12:26:00;23.20;99.90
52125;DHT22;38119;52.710;6.398;2023-07-29T12:28:26;23.40;99.90
52125;DHT22;38119;52.710;6.398;2023-07-29T12:30:55;23.40;99.90
52125;DHT22;38119;52.710;6.398;2023-07-29T12:33:32;23.50;99.90
52125;DHT22;38119;52.710;6.398;2023-07-29T12:35:59;23.70;99.90
52125;DHT22;38119;52.710;6.398;2023-07-29T12:38:28;23.90;99.90
52125;DHT22;38119;52.710;6.398;2023-07-29T12:40:54;23.80;99.90
52125;DHT22;38119;52.710;6.398;2023-07-29T12:43:20;23.70;99.90
52125;DHT22;38119;52.710;6.398;2023-07-29T12:45:46;23.50;99.90
52125;DHT22;38119;52.710;6.398;2023-07-29T12:48:11;23.20;99.90
52125;DHT22;38119;52.710;6.398;2023-07-29T12:50:38;22.90;99.90
52125;DHT22;38119;52.710;6.398;2023-07-29T12:53:06;22.60;99.90
52125;DHT22;38119;52.710;6.398;2023-07-29T12:55:32;22.40;99.90
52125;DHT22;38119;52.710;6.398;2023-07-29T12:57:57;22.40;99.90
52125;DHT22;38119;52.710;6.398;2023-07-29T13:00:24;22.30;99.90
52125;DHT22;38119;52.710;6.398;2023-07-29T13:02:50;22.40;99.90
52125;DHT22;38119;52.710;6.398;2023-07-29T13:05:17;22.60;99.90
52125;DHT22;38119;52.710;6.398;2023-07-29T13:07:43;22.80;99.90
52125;DHT22;38119;52.710;6.398;2023-07-29T13:10:09;23.00;99.90
52125;DHT22;38119;52.710;6.398;2023-07-29T13:12:35;23.30;99.90
52125;DHT22;38119;52.710;6.398;2023-07-29T13:15:01;23.50;99.90
52125;DHT22;38119;52.710;6.398;2023-07-29T13:17:27;23.60;99.90
52125;DHT22;38119;52.710;6.398;2023-07-29T13:19:53;23.70;99.90
52125;DHT22;38119;52.710;6.398;2023-07-29T13:22:20;23.60;99.90
52125;DHT22;38119;52.710;6.398;2023-07-29T13:24:45;23.50;99.90
52125;DHT22;38119;52.710;6.398;2023-07-29T13:27:11;23.20;99.90
52125;DHT22;38119;52.710;6.398;2023-07-29T13:29:37;22.90;99.90
52125;DHT22;38119;52.710;6.398;2023-07-29T13:32:03;22.60;99.90
52125;DHT22;38119;52.710;6.398;2023-07-29T13:34:28;22.30;99.90
52125;DHT22;38119;52.710;6.398;2023-07-29T13:36:54;21.80;99.90
52125;DHT22;38119;52.710;6.398;2023-07-29T13:39:20;21.50;99.90
52125;DHT22;38119;52.710;6.398;2023-07-29T13:41:45;21.10;99.90
52125;DHT22;38119;52.710;6.398;2023-07-29T13:44:11;20.90;99.90
52125;DHT22;38119;52.710;6.398;2023-07-29T13:46:37;20.70;99.90
52125;DHT22;38119;52.710;6.398;2023-07-29T13:49:03;20.40;99.90
52125;DHT22;38119;52.710;6.398;2023-07-29T13:51:28;20.30;99.90
52125;DHT22;38119;52.710;6.398;2023-07-29T13:53:54;20.20;99.90
52125;DHT22;38119;52.710;6.398;2023-07-29T13:56:21;20.20;99.90
52125;DHT22;38119;52.710;6.398;2023-07-29T13:58:47;20.30;99.90
52125;DHT22;38119;52.710;6.398;2023-07-29T14:01:13;20.40;99.90
52125;DHT22;38119;52.710;6.398;2023-07-29T14:03:38;20.70;99.90
52125;DHT22;38119;52.710;6.398;2023-07-29T14:06:04;21.00;99.90
52125;DHT22;38119;52.710;6.398;2023-07-29T14:08:29;21.10;99.90
52125;DHT22;38119;52.710;6.398;2023-07-29T14:10:55;21.20;99.90
52125;DHT22;38119;52.710;6.398;2023-07-29T14:13:21;21.20;99.90
52125;DHT22;38119;52.710;6.398;2023-07-29T14:15:47;21.20;99.90
52125;DHT22;38119;52.710;6.398;2023-07-29T14:18:12;21.10;99.90
52125;DHT22;38119;52.710;6.398;2023-07-29T14:20:38;21.00;99.90
52125;DHT22;38119;52.710;6.398;2023-07-29T14:23:04;20.80;99.90
52125;DHT22;38119;52.710;6.398;2023-07-29T14:25:30;20.80;99.90
52125;DHT22;38119;52.710;6.398;2023-07-29T14:27:55;20.70;99.90
52125;DHT22;38119;52.710;6.398;2023-07-29T14:30:21;20.70;99.90
52125;DHT22;38119;52.710;6.398;2023-07-29T14:32:47;20.70;99.90
52125;DHT22;38119;52.710;6.398;2023-07-29T14:35:12;20.50;99.90
52125;DHT22;38119;52.710;6.398;2023-07-29T14:37:38;20.40;99.90
52125;DHT22;38119;52.710;6.398;2023-07-29T14:40:04;20.20;99.90
52125;DHT22;38119;52.710;6.398;2023-07-29T14:42:30;20.10;99.90
52125;DHT22;38119;52.710;6.398;2023-07-29T14:44:56;20.00;99.90
52125;DHT22;38119;52.710;6.398;2023-07-29T14:47:21;20.00;99.90
52125;DHT22;38119;52.710;6.398;2023-07-29T14:49:47;20.10;99.90
52125;DHT22;38119;52.710;6.398;2023-07-29T14:52:13;20.20;99.90
52125;DHT22;38119;52.710;6.398;2023-07-29T14:54:38;20.40;99.90
52125;DHT22;38119;52.710;6.398;2023-07-29T14:57:06;20.50;99.90
52125;DHT22;38119;52.710;6.398;2023-07-29T14:59:32;20.70;99.90
52125;DHT22;38119;52.710;6.398;2023-07-29T15:01:58;20.80;99.90
52125;DHT22;38119;52.710;6.398;2023-07-29T15:04:24;21.00;99.90
52125;DHT22;38119;52.710;6.398;2023-07-29T15:06:49;21.20;99.90
52125;DHT22;38119;52.710;6.398;2023-07-29T15:09:15;21.30;99.90
52125;DHT22;38119;52.710;6.398;2023-07-29T15:11:41;21.50;99.90
52125;DHT22;38119;52.710;6.398;2023-07-29T15:14:06;21.50;99.90
52125;DHT22;38119;52.710;6.398;2023-07-29T15:16:32;21.60;99.90
52125;DHT22;38119;52.710;6.398;2023-07-29T15:19:01;21.70;99.90
52125;DHT22;38119;52.710;6.398;2023-07-29T15:21:27;21.80;99.90
52125;DHT22;38119;52.710;6.398;2023-07-29T15:23:53;21.80;99.90
52125;DHT22;38119;52.710;6.398;2023-07-29T15:26:18;21.80;99.90
52125;DHT22;38119;52.710;6.398;2023-07-29T15:28:44;21.90;99.90
52125;DHT22;38119;52.710;6.398;2023-07-29T15:31:12;22.00;99.90
52125;DHT22;38119;52.710;6.398;2023-07-29T15:33:38;22.00;99.90
52125;DHT22;38119;52.710;6.398;2023-07-29T15:36:04;22.00;99.90
52125;DHT22;38119;52.710;6.398;2023-07-29T15:38:29;22.10;99.90
52125;DHT22;38119;52.710;6.398;2023-07-29T15:40:55;22.10;99.90
52125;DHT22;38119;52.710;6.398;2023-07-29T15:43:21;22.20;99.90
52125;DHT22;38119;52.710;6.398;2023-07-29T15:45:47;22.20;99.90